Time;durP1;ratioP1;P1;durP2;ratioP2;P2;SDS_P1;SDS_P2;PMS_P1;PMS_P2;Temp;Humidity;BMP_temperature;BMP_pressure;BME280_temperature;BME280_humidity;BME280_pressure;Samples;Min_cycle;Max_cycle;Signal;HPM_P1;HPM_P2
2023/10/18 00:01:34;;;;;;;29.45;27.85;;;;;;;8.46;100.00;101419.31;5030762;28;20050;-76
2023/10/18 00:04:03;;;;;;;28.85;27.25;;;;;;;8.51;100.00;101408.22;5031890;28;20056;-76
2023/10/18 00:07:01;;;;;;;27.88;26.27;;;;;;;8.75;100.00;101409.06;5031205;28;20049;-76
2023/10/18 00:09:45;;;;;;;30.92;29.13;;;;;;;8.73;100.00;101411.06;5031724;28;20037;-75
2023/10/18 00:12:29;;;;;;;32.28;30.58;;;;;;;8.67;100.00;101412.56;5030756;28;20049;-76
2023/10/18 00:21:42;;;;;;;32.78;30.98;;;;;;;8.28;100.00;101416.09;5027153;28;20471;-78
2023/10/18 00:24:40;;;;;;;34.70;32.90;;;;;;;7.85;100.00;101422.72;5032194;28;20053;-78
2023/10/18 00:27:46;;;;;;;32.85;30.95;;;;;;;7.89;100.00;101416.09;5031987;28;20053;-77
2023/10/18 00:30:19;;;;;;;28.80;27.20;;;;;;;7.40;100.00;101419.69;5032013;28;20477;-77
2023/10/18 00:32:56;;;;;;;27.77;26.08;;;;;;;7.77;100.00;101407.72;5031871;28;20761;-77
2023/10/18 00:35:31;;;;;;;31.25;29.65;;;;;;;7.65;100.00;101409.88;5023094;28;20087;-77
2023/10/18 00:38:22;;;;;;;32.00;29.88;;;;;;;7.39;100.00;101401.38;5021820;28;20111;-77
2023/10/18 00:41:00;;;;;;;28.80;27.10;;;;;;;7.40;100.00;101406.47;5031945;28;20436;-76
2023/10/18 00:43:31;;;;;;;30.08;28.38;;;;;;;7.20;100.00;101406.03;5031474;28;20136;-76
2023/10/18 00:49:15;;;;;;;27.75;26.25;;;;;;;6.89;100.00;101400.56;5030895;28;20060;-77
2023/10/18 00:51:46;;;;;;;31.55;29.50;;;;;;;6.76;100.00;101401.06;5031739;28;20057;-77
2023/10/18 00:54:25;;;;;;;25.85;24.35;;;;;;;6.35;100.00;101405.47;5031724;28;20084;-77
2023/10/18 01:00:26;;;;;;;26.80;25.20;;;;;;;6.95;100.00;101417.59;5031654;28;20036;-77
2023/10/18 01:03:31;;;;;;;27.40;25.67;;;;;;;7.29;100.00;101412.97;5031299;28;20049;-77
2023/10/18 01:06:08;;;;;;;29.30;27.77;;;;;;;7.48;100.00;101406.47;5013778;28;20057;-76
2023/10/18 01:08:39;;;;;;;25.48;23.98;;;;;;;7.25;100.00;101410.81;5031067;28;20053;-76
2023/10/18 01:11:08;;;;;;;26.73;25.25;;;;;;;7.21;100.00;101407.66;5031194;28;20053;-77
2023/10/18 01:13:40;;;;;;;36.55;34.35;;;;;;;6.88;100.00;101401.56;5031373;28;20132;-77
2023/10/18 01:16:21;;;;;;;31.80;30.20;;;;;;;6.53;100.00;101400.06;5031566;28;20049;-79
2023/10/18 01:18:50;;;;;;;37.05;35.15;;;;;;;6.47;100.00;101396.25;5028946;28;20061;-77
2023/10/18 01:21:25;;;;;;;33.33;31.63;;;;;;;6.00;100.00;101402.06;5019286;28;20081;-78
2023/10/18 01:23:54;;;;;;;40.63;38.53;;;;;;;6.41;100.00;101404.81;5029856;28;20141;-76
2023/10/18 01:26:37;;;;;;;52.03;49.63;;;;;;;6.64;100.00;101402.38;5031053;28;20113;-77
2023/10/18 01:29:23;;;;;;;42.25;40.25;;;;;;;6.15;100.00;101403.09;5031412;28;20474;-79
2023/10/18 01:31:51;;;;;;;37.15;35.15;;;;;;;6.25;100.00;101397.69;5019974;28;20056;-77
2023/10/18 01:34:36;;;;;;;46.15;43.75;;;;;;;5.58;100.00;101400.19;5030898;28;20414;-76
2023/10/18 01:37:29;;;;;;;37.15;35.25;;;;;;;5.95;100.00;101402.53;5023777;28;20057;-77
2023/10/18 01:40:20;;;;;;;28.58;27.08;;;;;;;5.68;100.00;101408.78;5028837;28;20048;-78
2023/10/18 01:42:56;;;;;;;34.97;33.08;;;;;;;5.21;100.00;101418.91;5034558;28;20060;-78
2023/10/18 01:45:36;;;;;;;27.45;26.05;;;;;;;5.39;100.00;101418.84;5035052;28;20049;-76
2023/10/18 01:48:09;;;;;;;30.77;29.27;;;;;;;5.28;100.00;101426.00;5035697;28;20061;-78
2023/10/18 01:51:01;;;;;;;32.97;31.38;;;;;;;5.52;100.00;101421.88;5034731;28;20049;-77
2023/10/18 01:53:56;;;;;;;31.45;29.95;;;;;;;5.94;100.00;101434.34;5034929;28;20081;-78
2023/10/18 01:56:23;;;;;;;29.92;28.42;;;;;;;6.00;100.00;101431.06;5033667;28;20103;-77
2023/10/18 01:58:52;;;;;;;31.08;29.58;;;;;;;5.90;100.00;101443.50;5030065;28;20068;-77
2023/10/18 02:01:19;;;;;;;32.00;30.50;;;;;;;5.88;100.00;101451.59;5021289;28;20049;-77
2023/10/18 02:03:59;;;;;;;54.03;51.63;;;;;;;5.68;100.00;101448.34;5033230;28;20548;-77
2023/10/18 02:06:27;;;;;;;39.67;37.88;;;;;;;5.83;100.00;101450.41;5022857;28;20041;-77
2023/10/18 02:09:10;;;;;;;36.85;35.05;;;;;;;5.31;100.00;101448.59;5034116;28;20048;-78
2023/10/18 02:11:45;;;;;;;38.90;36.97;;;;;;;5.69;100.00;101455.28;5034468;28;20809;-77
2023/10/18 02:14:28;;;;;;;41.30;38.85;;;;;;;5.88;100.00;101450.75;5033981;28;20053;-79
2023/10/18 02:16:56;;;;;;;53.72;51.53;;;;;;;5.59;100.00;101458.97;5034205;28;20046;-76
2023/10/18 02:19:24;;;;;;;37.78;35.95;;;;;;;5.71;100.00;101453.28;5031452;28;20054;-77
2023/10/18 02:22:34;;;;;;;33.80;32.20;;;;;;;5.62;100.00;101458.69;5021729;28;20061;-77
2023/10/18 02:25:02;;;;;;;38.15;35.55;;;;;;;5.27;100.00;101448.06;5030123;28;20058;-77
2023/10/18 02:27:30;;;;;;;36.53;34.42;;;;;;;5.50;100.00;101456.28;5029874;28;20061;-78
2023/10/18 02:29:59;;;;;;;32.33;30.40;;;;;;;5.07;100.00;101453.66;5028655;28;20088;-81
2023/10/18 02:32:32;;;;;;;31.38;29.88;;;;;;;5.56;100.00;101451.38;5033662;28;20042;-77
2023/10/18 02:35:27;;;;;;;31.00;29.40;;;;;;;5.60;100.00;101447.44;5032259;28;20559;-77
2023/10/18 02:37:54;;;;;;;27.55;25.73;;;;;;;5.52;100.00;101442.97;5006880;28;20448;-77
2023/10/18 02:40:29;;;;;;;28.23;26.83;;;;;;;5.49;100.00;101444.09;5033806;28;20468;-78
2023/10/18 02:43:14;;;;;;;30.27;28.58;;;;;;;4.93;100.00;101441.84;5033726;28;20042;-77
2023/10/18 02:46:23;;;;;;;28.23;26.80;;;;;;;4.71;100.00;101432.59;5031252;28;20057;-78
2023/10/18 02:48:52;;;;;;;27.30;25.80;;;;;;;4.78;100.00;101436.28;5021584;28;20076;-78
2023/10/18 02:51:32;;;;;;;25.45;24.13;;;;;;;4.86;100.00;101438.19;5033574;28;20136;-76
2023/10/18 02:54:16;;;;;;;26.25;24.85;;;;;;;5.10;100.00;101437.56;5033236;28;20060;-76
2023/10/18 02:56:50;;;;;;;23.77;22.48;;;;;;;5.00;100.00;101445.56;5033414;28;20060;-77
2023/10/18 02:59:20;;;;;;;25.13;23.83;;;;;;;5.55;100.00;101439.19;5032451;28;20056;-77
2023/10/18 03:02:01;;;;;;;23.85;22.55;;;;;;;4.96;100.00;101431.88;5033668;28;20482;-76
2023/10/18 03:05:24;;;;;;;24.45;23.25;;;;;;;5.26;100.00;101441.16;5025020;28;20104;-78
2023/10/18 03:08:22;;;;;;;27.75;26.45;;;;;;;5.11;100.00;101439.22;5033261;28;20111;-78
2023/10/18 03:10:55;;;;;;;28.60;27.20;;;;;;;5.30;100.00;101439.03;5033639;28;20117;-77
2023/10/18 03:13:23;;;;;;;26.77;25.48;;;;;;;5.57;100.00;101438.06;5031210;28;20068;-77
2023/10/18 03:16:15;;;;;;;23.38;22.02;;;;;;;5.31;100.00;101443.31;5033231;28;20450;-77
2023/10/18 03:18:44;;;;;;;24.00;22.80;;;;;;;5.43;100.00;101436.00;5032840;28;20049;-78
2023/10/18 03:21:20;;;;;;;27.77;26.48;;;;;;;5.37;100.00;101442.69;5032706;28;20053;-77
2023/10/18 03:23:51;;;;;;;27.98;26.10;;;;;;;5.36;100.00;101448.97;5030030;28;20073;-77
2023/10/18 03:26:22;;;;;;;29.48;27.08;;;;;;;5.30;100.00;101441.69;5032896;28;20492;-77
2023/10/18 03:29:23;;;;;;;26.48;24.48;;;;;;;5.30;100.00;101444.31;5032900;28;20049;-77
2023/10/18 03:31:57;;;;;;;31.48;29.48;;;;;;;5.04;100.00;101439.81;5029510;28;20132;-77
2023/10/18 03:34:25;;;;;;;34.20;32.20;;;;;;;4.88;100.00;101438.88;5032319;28;20045;-77
2023/10/18 03:37:04;;;;;;;32.53;30.23;;;;;;;4.87;100.00;101440.69;5032572;28;20567;-77
2023/10/18 03:39:32;;;;;;;23.35;21.45;;;;;;;5.11;100.00;101441.84;5032717;28;20064;-76
2023/10/18 03:42:18;;;;;;;24.13;22.42;;;;;;;5.17;100.00;101443.88;5032866;28;20135;-77
2023/10/18 03:44:57;;;;;;;26.73;25.00;;;;;;;5.17;100.00;101443.88;5032330;28;20046;-78
2023/10/18 03:47:24;;;;;;;28.88;26.98;;;;;;;4.61;100.00;101445.84;5024068;28;20048;-76
2023/10/18 03:49:53;;;;;;;29.42;27.83;;;;;;;4.66;100.00;101454.13;5035182;28;20135;-76
2023/10/18 03:52:22;;;;;;;28.73;26.92;;;;;;;4.66;100.00;101459.38;5029485;28;20046;-76
2023/10/18 03:55:12;;;;;;;26.95;25.05;;;;;;;4.85;100.00;101454.97;5027235;28;20068;-77
2023/10/18 03:57:39;;;;;;;26.70;25.00;;;;;;;4.68;100.00;101453.97;5031337;28;20053;-76
2023/10/18 04:02:52;;;;;;;30.75;29.05;;;;;;;4.65;100.00;101455.09;5029979;28;20052;-78
2023/10/18 04:05:30;;;;;;;24.50;22.40;;;;;;;4.83;100.00;101457.72;5027049;28;20107;-77
2023/10/18 04:07:58;;;;;;;23.73;22.02;;;;;;;4.36;100.00;101460.53;5017312;28;20144;-77
2023/10/18 04:10:27;;;;;;;19.50;18.00;;;;;;;4.67;100.00;101452.31;5018315;28;20045;-78
2023/10/18 04:12:54;;;;;;;20.15;18.45;;;;;;;4.71;100.00;101449.22;5029347;28;20053;-76
2023/10/18 04:15:37;;;;;;;25.88;24.42;;;;;;;4.11;100.00;101459.41;5029690;28;20516;-79
2023/10/18 04:18:12;;;;;;;23.27;22.17;;;;;;;4.01;100.00;101461.25;5019138;28;20069;-79
2023/10/18 04:20:52;;;;;;;24.50;23.20;;;;;;;4.03;100.00;101470.66;5026912;28;20045;-77
2023/10/18 04:23:19;;;;;;;23.58;22.38;;;;;;;4.61;100.00;101461.63;5027412;28;20055;-77
2023/10/18 04:25:57;;;;;;;23.00;21.90;;;;;;;4.61;100.00;101463.44;5026742;28;20132;-76
2023/10/18 04:28:24;;;;;;;20.90;19.80;;;;;;;4.62;100.00;101457.19;5028893;28;20119;-76
2023/10/18 04:30:59;;;;;;;20.33;19.33;;;;;;;4.53;100.00;101467.63;5024924;28;20097;-77
2023/10/18 04:33:28;;;;;;;22.33;21.23;;;;;;;4.47;100.00;101460.31;5011216;28;20441;-77
2023/10/18 04:36:21;;;;;;;21.67;20.77;;;;;;;4.61;100.00;101452.91;5026798;28;20535;-78
2023/10/18 04:38:56;;;;;;;21.30;20.30;;;;;;;4.61;100.00;101455.53;4673255;28;10000461;-78
2023/10/18 04:41:36;;;;;;;21.90;20.90;;;;;;;3.62;100.00;101459.56;5023670;28;20158;-79
2023/10/18 04:44:06;;;;;;;19.10;18.00;;;;;;;3.41;100.00;101464.19;5026704;28;20495;-78
2023/10/18 04:46:35;;;;;;;18.20;17.20;;;;;;;3.63;100.00;101463.88;5018376;28;20132;-77
2023/10/18 04:49:32;;;;;;;19.10;18.10;;;;;;;3.66;100.00;101466.22;5021922;28;20042;-79
2023/10/18 04:52:07;;;;;;;19.30;18.20;;;;;;;3.57;100.00;101484.59;5029178;28;20049;-76
2023/10/18 04:54:38;;;;;;;18.70;17.63;;;;;;;4.33;100.00;101472.19;5028598;28;20056;-77
2023/10/18 04:57:10;;;;;;;20.00;18.90;;;;;;;4.29;100.00;101473.44;5027982;28;20571;-77
2023/10/18 04:59:46;;;;;;;20.38;19.20;;;;;;;4.25;100.00;101487.84;5025282;28;20065;-76
2023/10/18 05:02:17;;;;;;;20.00;18.90;;;;;;;4.26;100.00;101480.78;5026666;28;20049;-77
2023/10/18 05:04:57;;;;;;;20.92;19.83;;;;;;;4.23;100.00;101479.28;5020075;28;20045;-77
2023/10/18 05:07:38;;;;;;;20.70;19.67;;;;;;;4.48;100.00;101482.19;5028021;28;20808;-77
2023/10/18 05:10:16;;;;;;;20.65;19.65;;;;;;;4.72;100.00;101484.25;5023148;28;20049;-77
2023/10/18 05:12:53;;;;;;;21.40;20.20;;;;;;;4.38;100.00;101487.50;5022161;28;20064;-78
2023/10/18 05:15:30;;;;;;;19.98;18.88;;;;;;;4.61;100.00;101490.56;5033343;28;20061;-77
2023/10/18 05:18:04;;;;;;;19.73;18.65;;;;;;;4.51;100.00;101482.75;5029214;28;20490;-76
2023/10/18 05:20:46;;;;;;;20.77;19.58;;;;;;;4.69;100.00;101488.03;5033707;28;20041;-76
2023/10/18 05:23:21;;;;;;;20.33;19.33;;;;;;;4.83;100.00;101491.94;5026958;28;20050;-80
2023/10/18 05:25:48;;;;;;;19.25;18.25;;;;;;;4.78;100.00;101488.94;5027408;28;20045;-78
2023/10/18 05:28:24;;;;;;;21.23;19.92;;;;;;;4.98;100.00;101484.34;5033964;28;20045;-77
2023/10/18 05:37:14;;;;;;;23.75;22.38;;;;;;;5.14;100.00;101494.19;4961651;28;20106;-78
2023/10/18 05:40:41;;;;;;;23.90;22.65;;;;;;;5.25;100.00;101501.88;5009989;28;21589;-75
2023/10/18 05:42:38;;;;;;;25.45;24.15;;;;;;;5.43;100.00;101504.50;5024872;28;20053;-76
2023/10/18 05:45:10;;;;;;;24.90;23.58;;;;;;;5.51;100.00;101505.38;5031493;28;20053;-76
2023/10/18 05:47:42;;;;;;;24.17;22.88;;;;;;;6.19;100.00;101511.75;5021422;28;20475;-77
2023/10/18 05:50:12;;;;;;;24.05;22.55;;;;;;;6.51;100.00;101518.19;5026664;28;20045;-77
2023/10/18 05:52:49;;;;;;;24.10;22.33;;;;;;;6.83;100.00;101518.25;5027925;28;20089;-76
2023/10/18 05:55:16;;;;;;;25.05;23.55;;;;;;;6.73;100.00;101522.03;5029769;28;20501;-76
2023/10/18 05:57:45;;;;;;;24.33;22.90;;;;;;;6.88;100.00;101523.06;5027189;28;20445;-76
2023/10/18 06:00:26;;;;;;;24.65;23.15;;;;;;;7.13;100.00;101523.09;5028622;28;20045;-76
2023/10/18 06:02:53;;;;;;;22.85;21.65;;;;;;;7.42;100.00;101514.69;5033107;28;20436;-76
2023/10/18 06:05:33;;;;;;;29.75;27.17;;;;;;;7.55;100.00;101515.00;5027203;28;20056;-75
2023/10/18 06:08:01;;;;;;;30.55;28.65;;;;;;;7.41;100.00;101500.63;5022097;28;20146;-75
2023/10/18 06:10:49;;;;;;;27.45;25.85;;;;;;;7.92;100.00;101513.63;5033245;28;20045;-77
2023/10/18 06:13:21;;;;;;;29.10;27.50;;;;;;;8.15;100.00;101513.75;5021854;28;20057;-76
2023/10/18 06:15:50;;;;;;;34.85;29.83;;;;;;;8.46;100.00;101516.44;5021479;28;20142;-77
2023/10/18 06:18:25;;;;;;;29.70;28.00;;;;;;;8.39;100.00;101515.50;5031037;28;20049;-76
2023/10/18 06:21:18;;;;;;;35.70;33.70;;;;;;;8.73;100.00;101509.03;5018893;28;20046;-76
2023/10/18 06:23:54;;;;;;;36.25;32.85;;;;;;;8.92;100.00;101504.09;5029419;28;20137;-76
2023/10/18 06:26:33;;;;;;;31.63;29.42;;;;;;;9.58;100.00;101504.41;5015798;28;20061;-76
2023/10/18 06:29:08;;;;;;;42.13;38.22;;;;;;;9.65;100.00;101504.53;5023878;28;20049;-76
2023/10/18 06:31:43;;;;;;;102.55;78.90;;;;;;;10.30;100.00;101495.88;5026295;28;20045;-76
2023/10/18 06:34:15;;;;;;;40.70;36.80;;;;;;;10.21;100.00;101498.78;5023450;28;20057;-75
2023/10/18 06:36:44;;;;;;;41.03;37.38;;;;;;;10.25;100.00;101494.75;5027904;28;20051;-77
2023/10/18 06:39:24;;;;;;;43.72;39.13;;;;;;;10.57;100.00;101492.75;5032761;28;20064;-76
2023/10/18 06:41:55;;;;;;;27.80;25.85;;;;;;;11.17;100.00;101491.53;5032766;28;20053;-76
2023/10/18 06:44:27;;;;;;;25.27;23.70;;;;;;;11.07;100.00;101491.81;5027810;28;20045;-76
2023/10/18 06:46:55;;;;;;;34.57;26.30;;;;;;;11.95;100.00;101494.16;5027793;28;20133;-77
2023/10/18 06:49:22;;;;;;;36.83;28.40;;;;;;;11.89;100.00;101488.63;5032865;28;20516;-77
2023/10/18 06:51:50;;;;;;;27.73;25.80;;;;;;;12.60;100.00;101484.81;5013582;28;20430;-77
2023/10/18 06:54:23;;;;;;;26.10;24.50;;;;;;;12.57;100.00;101486.03;5027228;28;20103;-76
2023/10/18 06:56:53;;;;;;;28.80;26.15;;;;;;;12.69;100.00;101486.28;5031857;28;20045;-76
2023/10/18 06:59:37;;;;;;;27.52;25.77;;;;;;;13.03;100.00;101485.31;5031667;28;20045;-76
2023/10/18 07:02:06;;;;;;;28.42;26.73;;;;;;;13.25;100.00;101490.50;5027288;28;20046;-76
2023/10/18 07:04:37;;;;;;;28.15;26.13;;;;;;;13.72;100.00;101491.31;5013111;28;20050;-77
2023/10/18 07:07:11;;;;;;;26.15;24.27;;;;;;;14.53;100.00;101490.88;5030498;28;20107;-77
2023/10/18 07:13:14;;;;;;;25.70;23.67;;;;;;;15.38;100.00;101503.91;5031774;28;20092;-76
2023/10/18 07:15:42;;;;;;;25.10;23.30;;;;;;;15.30;100.00;101498.81;5024083;28;20064;-77
2023/10/18 07:18:14;;;;;;;25.88;24.08;;;;;;;15.96;100.00;101490.19;5030411;28;20085;-76
2023/10/18 07:20:49;;;;;;;25.02;23.23;;;;;;;16.03;100.00;101490.09;5029359;28;20472;-76
2023/10/18 07:23:21;;;;;;;24.95;23.15;;;;;;;15.54;100.00;101479.25;5027699;28;20304;-76
2023/10/18 07:26:07;;;;;;;25.27;23.77;;;;;;;15.92;100.00;101485.50;5029459;28;20139;-76
2023/10/18 07:28:36;;;;;;;26.90;25.23;;;;;;;16.05;100.00;101479.19;5031131;28;20485;-76
2023/10/18 07:31:18;;;;;;;28.30;26.10;;;;;;;16.44;100.00;101477.88;5030191;28;20054;-76
2023/10/18 07:33:50;;;;;;;30.27;28.20;;;;;;;17.49;100.00;101466.59;5023795;28;20053;-76
2023/10/18 07:36:18;;;;;;;28.07;26.23;;;;;;;16.88;100.00;101474.00;5028635;28;20095;-76
2023/10/18 07:39:04;;;;;;;25.65;24.00;;;;;;;17.81;100.00;101477.81;5030829;28;20053;-76
2023/10/18 07:41:34;;;;;;;23.33;21.83;;;;;;;18.28;100.00;101484.97;5027151;28;20453;-75
2023/10/18 07:44:05;;;;;;;24.40;22.80;;;;;;;17.99;100.00;101479.53;5029376;28;20059;-76
2023/10/18 07:46:34;;;;;;;22.98;21.48;;;;;;;16.99;100.00;101484.97;5029390;28;20506;-75
2023/10/18 07:49:11;;;;;;;25.70;24.10;;;;;;;17.51;100.00;101477.91;5019338;28;20437;-75
2023/10/18 07:51:43;;;;;;;25.08;23.38;;;;;;;17.21;100.00;101483.38;5026995;28;20588;-76
2023/10/18 07:54:14;;;;;;;26.27;24.58;;;;;;;17.47;100.00;101482.13;5030448;28;20050;-76
2023/10/18 07:56:48;;;;;;;23.95;22.50;;;;;;;16.89;100.00;101490.91;5023185;28;20057;-76
2023/10/18 07:59:28;;;;;;;25.10;23.50;;;;;;;16.98;100.00;101483.34;5018206;28;20498;-76
2023/10/18 08:02:07;;;;;;;26.65;24.65;;;;;;;16.74;100.00;101485.94;5024932;28;20052;-76
2023/10/18 08:04:37;;;;;;;26.40;24.80;;;;;;;16.45;100.00;101483.00;5030459;28;20068;-76
2023/10/18 08:07:04;;;;;;;24.30;22.80;;;;;;;16.19;100.00;101475.31;5027214;28;20056;-76
2023/10/18 08:09:48;;;;;;;23.48;21.98;;;;;;;15.73;100.00;101479.31;5022199;28;20444;-76
2023/10/18 08:12:28;;;;;;;22.13;20.73;;;;;;;15.75;100.00;101474.56;5030256;28;20045;-77
2023/10/18 08:14:57;;;;;;;23.40;21.80;;;;;;;15.56;100.00;101477.19;5030435;28;20081;-77
2023/10/18 08:17:43;;;;;;;24.63;22.85;;;;;;;15.92;100.00;101462.22;5025500;28;20488;-76
2023/10/18 08:20:54;;;;;;;25.08;23.27;;;;;;;16.03;100.00;101466.00;5019252;28;20588;-77
2023/10/18 08:23:34;;;;;;;23.33;21.83;;;;;;;15.43;100.00;101465.75;5020537;28;20038;-76
2023/10/18 08:26:09;;;;;;;26.27;24.45;;;;;;;16.84;100.00;101463.94;5028653;28;20547;-76
2023/10/18 08:28:40;;;;;;;23.63;22.10;;;;;;;15.63;100.00;101465.59;5029121;28;20523;-76
2023/10/18 08:31:15;;;;;;;26.42;24.73;;;;;;;16.82;100.00;101452.63;5028673;28;20139;-76
2023/10/18 08:33:43;;;;;;;26.95;25.15;;;;;;;16.67;100.00;101456.53;5029519;28;20103;-76
2023/10/18 08:36:13;;;;;;;25.17;23.58;;;;;;;16.37;100.00;101453.84;5027188;28;20064;-77
2023/10/18 08:38:44;;;;;;;31.95;29.17;;;;;;;17.14;100.00;101453.16;5026570;28;20472;-76
2023/10/18 08:41:15;;;;;;;29.25;26.88;;;;;;;17.70;100.00;101458.97;5029196;28;20049;-76
2023/10/18 08:43:53;;;;;;;49.83;42.67;;;;;;;18.25;100.00;101469.31;5029587;28;20122;-76
2023/10/18 08:46:26;;;;;;;28.60;26.55;;;;;;;17.46;100.00;101468.91;5017120;28;20481;-76
2023/10/18 08:49:14;;;;;;;27.95;26.25;;;;;;;18.28;100.00;101461.59;5028868;28;20045;-76
2023/10/18 08:51:56;;;;;;;27.60;25.80;;;;;;;17.98;100.00;101469.03;5018591;28;20045;-76
2023/10/18 08:54:24;;;;;;;27.67;25.97;;;;;;;17.05;100.00;101465.28;5024212;28;20053;-77
2023/10/18 08:56:52;;;;;;;26.85;25.05;;;;;;;16.87;100.00;101469.66;5029793;28;20859;-77
2023/10/18 08:59:20;;;;;;;26.35;24.55;;;;;;;17.15;100.00;101463.63;5029104;28;20053;-76
2023/10/18 09:02:09;;;;;;;25.35;23.65;;;;;;;18.62;100.00;101471.63;5025375;28;20038;-75
2023/10/18 09:04:37;;;;;;;25.92;24.23;;;;;;;18.99;100.00;101469.34;5029602;28;20045;-77
2023/10/18 09:07:18;;;;;;;26.20;24.40;;;;;;;18.22;100.00;101473.31;5027828;28;20053;-77
2023/10/18 09:09:55;;;;;;;24.20;22.70;;;;;;;18.50;100.00;101466.31;5026063;28;20046;-76
2023/10/18 09:12:36;;;;;;;25.02;23.38;;;;;;;18.96;100.00;101467.97;5029199;28;20469;-76
2023/10/18 09:17:45;;;;;;;25.20;23.60;;;;;;;22.06;100.00;101451.81;5027188;28;20111;-76
2023/10/18 09:20:15;;;;;;;26.05;23.58;;;;;;;22.59;77.70;101446.28;5028563;28;20053;-75
2023/10/18 09:22:47;;;;;;;23.48;21.75;;;;;;;22.87;82.62;101442.22;5024326;28;20136;-75
2023/10/18 09:25:14;;;;;;;24.48;22.67;;;;;;;22.83;88.10;101447.38;5018082;28;20476;-75
2023/10/18 09:27:41;;;;;;;24.88;23.27;;;;;;;23.57;68.73;101441.63;5029191;28;20053;-75
2023/10/18 09:30:13;;;;;;;25.10;23.30;;;;;;;19.04;100.00;101441.72;5010950;28;20046;-75
2023/10/18 09:32:40;;;;;;;24.02;22.25;;;;;;;22.26;85.18;101432.13;5019944;28;20077;-76
2023/10/18 09:35:09;;;;;;;26.50;24.60;;;;;;;23.20;74.25;101426.53;5027688;28;20132;-74
2023/10/18 09:37:36;;;;;;;27.23;25.42;;;;;;;22.80;77.22;101426.25;5028964;28;20643;-75
2023/10/18 09:40:06;;;;;;;29.52;27.45;;;;;;;19.14;100.00;101431.09;5018982;28;20046;-77
2023/10/18 09:42:33;;;;;;;26.55;24.80;;;;;;;20.93;100.00;101434.06;5027746;28;20050;-75
2023/10/18 09:45:00;;;;;;;27.58;25.77;;;;;;;21.83;88.64;101417.09;5028948;28;20436;-76
2023/10/18 09:47:35;;;;;;;27.20;25.40;;;;;;;20.66;96.68;101427.91;5027820;28;20049;-75
2023/10/18 09:50:06;;;;;;;27.10;25.40;;;;;;;20.33;93.99;101430.53;5027102;28;20054;-76
2023/10/18 09:52:47;;;;;;;28.27;26.38;;;;;;;20.99;94.27;101422.25;5022806;28;20042;-76
2023/10/18 09:55:20;;;;;;;28.20;26.40;;;;;;;21.59;94.95;101411.31;5013211;28;20041;-75
2023/10/18 09:58:02;;;;;;;27.33;25.50;;;;;;;20.88;89.73;101420.56;5020885;28;20469;-76
2023/10/18 10:00:33;;;;;;;26.27;24.58;;;;;;;20.62;96.48;101418.69;5031899;28;20050;-75
2023/10/18 10:03:24;;;;;;;25.85;24.25;;;;;;;21.95;97.49;101406.88;5030723;28;20037;-76
2023/10/18 10:05:52;;;;;;;27.35;25.58;;;;;;;21.57;82.20;101408.84;5031617;28;20049;-75
2023/10/18 10:08:22;;;;;;;28.80;27.10;;;;;;;20.74;93.28;101409.34;5031146;28;20156;-77
2023/10/18 10:10:58;;;;;;;26.83;25.33;;;;;;;21.30;86.92;101391.94;5024103;28;20437;-77
2023/10/18 10:13:27;;;;;;;26.27;24.45;;;;;;;19.32;100.00;101393.13;5030521;28;20049;-76
2023/10/18 10:15:59;;;;;;;25.30;23.80;;;;;;;21.79;92.06;101387.09;5023832;28;20129;-76
2023/10/18 10:18:32;;;;;;;24.40;22.90;;;;;;;19.29;100.00;101382.03;5026855;28;20136;-77
2023/10/18 10:21:06;;;;;;;28.15;26.40;;;;;;;17.43;100.00;101392.34;5029394;28;20041;-76
2023/10/18 10:23:33;;;;;;;27.50;25.80;;;;;;;20.70;100.00;101380.47;5029473;28;20054;-76
2023/10/18 10:26:11;;;;;;;24.98;23.38;;;;;;;21.24;92.28;101377.56;5025279;28;20045;-76
2023/10/18 10:31:54;;;;;;;23.70;22.20;;;;;;;20.74;93.24;101368.06;5024740;28;20426;-76
2023/10/18 10:34:32;;;;;;;23.42;21.90;;;;;;;23.46;81.13;101357.63;5024844;28;20057;-75
2023/10/18 10:37:08;;;;;;;25.40;23.23;;;;;;;21.79;82.71;101353.84;5030721;28;20053;-75
2023/10/18 10:39:43;;;;;;;25.92;24.23;;;;;;;20.33;100.00;101367.66;5026270;28;20050;-76
2023/10/18 10:42:19;;;;;;;25.10;23.50;;;;;;;19.28;100.00;101358.88;5032180;28;20916;-77
2023/10/18 10:45:10;;;;;;;24.65;23.13;;;;;;;21.15;93.93;101360.22;5031023;28;20046;-77
2023/10/18 10:47:43;;;;;;;26.95;25.30;;;;;;;20.36;98.43;101364.44;5031574;28;20052;-75
2023/10/18 10:50:12;;;;;;;26.42;24.67;;;;;;;24.22;75.28;101355.63;5029436;28;20050;-75
2023/10/18 10:52:44;;;;;;;27.38;25.67;;;;;;;26.20;56.20;101341.03;5024524;28;20042;-76
2023/10/18 10:55:26;;;;;;;27.52;25.92;;;;;;;25.02;57.36;101346.28;5020823;28;20053;-77
2023/10/18 10:58:15;;;;;;;26.42;24.83;;;;;;;25.48;55.73;101327.59;5023094;28;20441;-75
2023/10/18 11:00:59;;;;;;;27.52;25.92;;;;;;;25.56;53.68;101337.78;5013204;28;20077;-75
2023/10/18 11:03:54;;;;;;;26.60;24.95;;;;;;;25.89;51.39;101335.22;5024220;28;20046;-77
2023/10/18 11:06:43;;;;;;;26.30;24.60;;;;;;;26.61;50.49;101337.66;5032456;28;20049;-78
2023/10/18 11:09:15;;;;;;;25.88;24.33;;;;;;;26.94;47.72;101337.63;5013586;28;20054;-79
2023/10/18 11:11:45;;;;;;;;;;;;;;;26.64;48.81;101331.59;5032459;28;20072;-76
2023/10/18 11:14:27;;;;;;;26.05;24.25;;;;;;;26.76;47.60;101328.41;5032386;28;19921;-77
2023/10/18 11:17:03;;;;;;;;;;;;;;;25.35;52.49;101331.00;5016963;28;20141;-76
2023/10/18 11:19:51;;;;;;;25.52;23.63;;;;;;;24.19;64.98;101338.00;5032684;28;19987;-76
2023/10/18 11:22:22;;;;;;;25.23;23.42;;;;;;;24.01;58.56;101344.09;5033002;28;20057;-77
2023/10/18 11:25:00;;;;;;;25.42;23.63;;;;;;;26.59;51.73;101342.59;5026789;28;20756;-76
2023/10/18 11:30:53;;;;;;;26.88;25.08;;;;;;;25.98;53.35;101341.59;5029379;28;20908;-77
2023/10/18 11:36:22;;;;;;;27.17;25.55;;;;;;;26.32;46.17;101331.56;5021584;28;20525;-76
2023/10/18 11:41:36;;;;;;;26.30;24.60;;;;;;;25.32;58.23;101323.41;5014982;28;20061;-76
2023/10/18 11:44:06;;;;;;;27.38;25.58;;;;;;;25.49;53.02;101326.47;5032153;28;20429;-76
2023/10/18 11:46:51;;;;;;;27.95;26.15;;;;;;;22.31;70.65;101325.81;5031659;28;20081;-76
2023/10/18 11:49:57;;;;;;;27.98;26.17;;;;;;;22.48;69.29;101315.56;5015868;28;20062;-75
2023/10/18 11:52:30;;;;;;;26.98;25.27;;;;;;;23.96;65.10;101312.41;5031188;28;20053;-77
2023/10/18 11:55:08;;;;;;;27.42;25.73;;;;;;;23.51;59.38;101305.28;5031853;28;20107;-78
2023/10/18 11:57:46;;;;;;;27.00;25.20;;;;;;;24.22;59.35;101306.78;5025825;28;20054;-75
2023/10/18 12:00:28;;;;;;;28.55;26.55;;;;;;;24.90;54.90;101301.31;5031594;28;20049;-77
2023/10/18 12:03:08;;;;;;;;;;;;;;;26.84;49.13;101291.47;5032214;28;20458;-77
2023/10/18 12:05:45;;;;;;;27.73;25.85;;;;;;;26.90;46.11;101293.81;5023606;28;19921;-77
2023/10/18 12:08:14;;;;;;;26.95;25.05;;;;;;;26.70;46.35;101288.75;5031132;28;20433;-77
2023/10/18 12:10:41;;;;;;;27.52;25.42;;;;;;;26.31;46.39;101286.41;5031744;28;20512;-75
2023/10/18 12:13:12;;;;;;;26.55;24.65;;;;;;;26.07;47.50;101287.31;5027190;28;20081;-76
2023/10/18 12:15:40;;;;;;;26.55;24.63;;;;;;;26.11;46.88;101282.09;5027457;28;20444;-77
2023/10/18 12:18:08;;;;;;;24.73;23.10;;;;;;;25.49;47.45;101282.16;5028278;28;20072;-76
2023/10/18 12:20:36;;;;;;;24.00;22.40;;;;;;;26.45;46.11;101279.88;5030935;28;20061;-76
2023/10/18 12:23:12;;;;;;;24.23;22.63;;;;;;;23.44;52.89;101286.63;5031225;28;20515;-77
2023/10/18 12:25:43;;;;;;;24.88;23.27;;;;;;;24.73;60.72;101273.78;5028373;28;20049;-76
2023/10/18 12:28:28;;;;;;;25.25;23.65;;;;;;;24.04;57.64;101280.34;5031000;28;20107;-77